Time;durP1;ratioP1;P1;durP2;ratioP2;P2;SDS_P1;SDS_P2;PMS_P1;PMS_P2;Temp;Humidity;BMP_temperature;BMP_pressure;BME280_temperature;BME280_humidity;BME280_pressure;Samples;Min_cycle;Max_cycle;Signal;HPM_P1;HPM_P2
2023/12/06 00:02:07;;;;;;;;;;;;;;;-6.11;80.60;101617.37;107039;1255;74514;-84
2023/12/06 00:04:33;;;;;;;;;;;;;;;-6.10;80.52;101616.84;106936;1256;65074;-85
2023/12/06 00:07:00;;;;;;;;;;;;;;;-6.09;80.59;101611.69;106893;1254;124547;-84
2023/12/06 00:09:27;;;;;;;;;;;;;;;-6.06;80.58;101611.47;106896;1260;61325;-85
2023/12/06 00:11:54;;;;;;;;;;;;;;;-6.02;80.60;101609.23;106963;1256;124670;-84
2023/12/06 00:14:20;;;;;;;;;;;;;;;-6.01;80.57;101611.59;107023;1254;74459;-84
2023/12/06 00:16:47;;;;;;;;;;;;;;;-5.99;80.76;101609.80;107059;1259;66279;-84
2023/12/06 00:19:14;;;;;;;;;;;;;;;-5.93;80.65;101615.10;106836;1260;123273;-85
2023/12/06 00:21:41;;;;;;;;;;;;;;;-5.90;80.62;101617.56;106916;1259;61166;-85
2023/12/06 00:24:08;;;;;;;;;;;;;;;-5.88;80.65;101616.04;106891;1258;123026;-85
2023/12/06 00:26:35;;;;;;;;;;;;;;;-5.83;80.75;101612.57;107032;1254;73370;-85
2023/12/06 00:29:02;;;;;;;;;;;;;;;-5.79;80.74;101611.14;106893;1256;124365;-86
2023/12/06 00:31:29;;;;;;;;;;;;;;;-5.74;80.88;101618.62;106987;1258;71348;-86
2023/12/06 00:33:55;;;;;;;;;;;;;;;-5.70;80.83;101619.09;107080;1258;61322;-84
2023/12/06 00:36:22;;;;;;;;;;;;;;;-5.65;80.75;101621.11;106935;1258;124647;-85
2023/12/06 00:38:49;;;;;;;;;;;;;;;-5.64;80.77;101618.30;107002;1256;74400;-84
2023/12/06 00:41:15;;;;;;;;;;;;;;;-5.63;80.84;101621.01;107070;1254;123253;-85
2023/12/06 00:43:42;;;;;;;;;;;;;;;-5.61;80.63;101620.34;107319;1258;71297;-84
2023/12/06 00:46:10;;;;;;;;;;;;;;;-5.60;80.64;101621.13;107022;1256;61255;-83
2023/12/06 00:48:36;;;;;;;;;;;;;;;-5.57;80.72;101620.09;106840;1256;124055;-84
2023/12/06 00:51:03;;;;;;;;;;;;;;;-5.55;80.66;101616.69;106844;1256;75043;-85
2023/12/06 00:53:30;;;;;;;;;;;;;;;-5.52;80.81;101612.70;106971;1256;124322;-84
2023/12/06 00:55:56;;;;;;;;;;;;;;;-5.48;80.93;101607.30;107020;1253;71332;-84
2023/12/06 00:58:23;;;;;;;;;;;;;;;-5.46;80.77;101608.69;106989;1255;61872;-84
2023/12/06 01:00:50;;;;;;;;;;;;;;;-5.46;80.65;101609.35;106947;1255;124114;-84
2023/12/06 01:03:17;;;;;;;;;;;;;;;-5.45;80.67;101610.30;106867;1256;74394;-84
2023/12/06 01:05:44;;;;;;;;;;;;;;;-5.46;80.85;101605.51;106819;1258;124628;-83
2023/12/06 01:08:10;;;;;;;;;;;;;;;-5.46;80.60;101605.10;106836;1255;72190;-84
2023/12/06 01:10:37;;;;;;;;;;;;;;;-5.44;80.80;101601.36;106791;1256;59644;-79
2023/12/06 01:13:04;;;;;;;;;;;;;;;-5.43;80.64;101600.42;106670;1255;124921;-79
2023/12/06 01:15:30;;;;;;;;;;;;;;;-5.42;80.70;101599.65;106877;1256;74699;-79
2023/12/06 01:17:57;;;;;;;;;;;;;;;-5.41;80.70;101600.80;106758;1258;124711;-79
2023/12/06 01:20:24;;;;;;;;;;;;;;;-5.40;80.70;101603.67;106618;1256;71777;-79
2023/12/06 01:22:50;;;;;;;;;;;;;;;-5.36;80.67;101605.77;106807;1258;125468;-78
2023/12/06 01:25:17;;;;;;;;;;;;;;;-5.34;80.76;101612.03;106783;1256;61804;-79
2023/12/06 01:27:44;;;;;;;;;;;;;;;-5.31;80.65;101609.91;106730;1254;73237;-78
2023/12/06 01:30:11;;;;;;;;;;;;;;;-5.28;80.70;101616.06;106712;1260;124062;-79
2023/12/06 01:32:37;;;;;;;;;;;;;;;-5.26;80.58;101616.36;106779;1256;72727;-79
2023/12/06 01:35:04;;;;;;;;;;;;;;;-5.23;80.74;101619.36;106675;1261;125866;-78
2023/12/06 01:37:31;;;;;;;;;;;;;;;-5.18;80.71;101621.40;106244;1256;61261;-78
2023/12/06 01:39:58;;;;;;;;;;;;;;;-5.14;80.75;101623.75;106804;1259;74624;-78
2023/12/06 01:42:24;;;;;;;;;;;;;;;-5.10;80.69;101622.82;106717;1258;125083;-78
2023/12/06 01:44:51;;;;;;;;;;;;;;;-5.07;80.58;101623.60;106734;1254;71066;-80
2023/12/06 01:47:18;;;;;;;;;;;;;;;-5.02;80.60;101627.23;106668;1254;125051;-78
2023/12/06 01:49:45;;;;;;;;;;;;;;;-4.96;80.56;101626.59;106873;1254;61148;-78
2023/12/06 01:52:12;;;;;;;;;;;;;;;-4.90;80.62;101626.19;106914;1254;73397;-79
2023/12/06 01:54:38;;;;;;;;;;;;;;;-4.85;80.64;101629.48;106841;1254;124768;-80
2023/12/06 01:57:05;;;;;;;;;;;;;;;-4.82;80.46;101629.70;106980;1253;72951;-80
2023/12/06 01:59:32;;;;;;;;;;;;;;;-4.79;80.33;101628.95;106812;1254;126518;-80
2023/12/06 02:01:59;;;;;;;;;;;;;;;-4.78;80.19;101625.99;107033;1253;59908;-79
2023/12/06 02:04:26;;;;;;;;;;;;;;;-4.81;80.06;101624.84;106992;1254;74790;-80
2023/12/06 02:06:52;;;;;;;;;;;;;;;-4.83;79.99;101620.54;106801;1255;125352;-81
2023/12/06 02:09:19;;;;;;;;;;;;;;;-4.85;79.93;101624.23;106828;1260;71277;-78
2023/12/06 02:11:46;;;;;;;;;;;;;;;-4.90;79.69;101622.73;106767;1256;124562;-79
2023/12/06 02:14:13;;;;;;;;;;;;;;;-4.95;79.78;101620.71;107003;1258;61130;-79
2023/12/06 02:16:40;;;;;;;;;;;;;;;-4.96;79.81;101615.80;106845;1261;74409;-79
2023/12/06 02:19:07;;;;;;;;;;;;;;;-5.03;79.68;101619.20;106741;1258;124474;-79
2023/12/06 02:21:34;;;;;;;;;;;;;;;-5.08;79.71;101625.21;106810;1256;72712;-77
2023/12/06 02:24:00;;;;;;;;;;;;;;;-5.10;79.93;101622.16;106059;1255;124206;-78
2023/12/06 02:26:27;;;;;;;;;;;;;;;-5.11;79.89;101615.67;106146;1255;61238;-78
2023/12/06 02:28:57;;;;;;;;;;;;;;;-5.17;79.85;101609.97;106024;1261;124644;-78
2023/12/06 02:31:24;;;;;;;;;;;;;;;-5.23;79.68;101608.95;106226;1256;66222;-78
2023/12/06 02:33:51;;;;;;;;;;;;;;;-5.30;79.73;101605.67;106244;1261;72697;-77
2023/12/06 02:36:18;;;;;;;;;;;;;;;-5.37;79.75;101606.41;106443;1259;125064;-78
2023/12/06 02:38:45;;;;;;;;;;;;;;;-5.40;79.78;101605.84;106479;1258;61271;-78
2023/12/06 02:41:12;;;;;;;;;;;;;;;-5.43;79.73;101604.71;106075;1256;124474;-78
2023/12/06 02:43:39;;;;;;;;;;;;;;;-5.46;79.86;101611.27;106891;1256;66214;-78
2023/12/06 02:46:06;;;;;;;;;;;;;;;-5.46;79.96;101611.29;106803;1255;70477;-79
2023/12/06 02:48:33;;;;;;;;;;;;;;;-5.46;79.88;101610.60;106620;1256;124737;-85
2023/12/06 02:51:00;;;;;;;;;;;;;;;-5.48;80.01;101607.33;106801;1255;60133;-85
2023/12/06 02:53:26;;;;;;;;;;;;;;;-5.49;79.96;101609.31;106822;1256;124940;-86
2023/12/06 02:55:53;;;;;;;;;;;;;;;-5.46;80.02;101607.34;106727;1256;64362;-86
2023/12/06 02:58:19;;;;;;;;;;;;;;;-5.43;79.96;101608.15;106782;1256;71716;-85
2023/12/06 03:00:46;;;;;;;;;;;;;;;-5.40;80.10;101606.09;107065;1257;125068;-85
2023/12/06 03:03:13;;;;;;;;;;;;;;;-5.40;79.88;101611.02;107191;1257;61218;-85
2023/12/06 03:05:40;;;;;;;;;;;;;;;-5.40;80.01;101608.63;107080;1254;124925;-84
2023/12/06 03:08:07;;;;;;;;;;;;;;;-5.38;80.10;101613.09;106902;1256;66256;-85
2023/12/06 03:10:33;;;;;;;;;;;;;;;-5.36;80.01;101613.71;106975;1255;71348;-85
2023/12/06 03:13:00;;;;;;;;;;;;;;;-5.32;79.87;101614.92;106916;1260;124955;-85
2023/12/06 03:15:27;;;;;;;;;;;;;;;-5.29;79.95;101624.00;106994;1256;61293;-85
2023/12/06 03:17:54;;;;;;;;;;;;;;;-5.27;79.91;101626.27;106903;1255;124596;-85
2023/12/06 03:20:21;;;;;;;;;;;;;;;-5.24;79.66;101629.92;106953;1260;66254;-85
2023/12/06 03:22:48;;;;;;;;;;;;;;;-5.22;79.69;101630.42;106901;1256;71417;-84
2023/12/06 03:25:14;;;;;;;;;;;;;;;-5.22;79.68;101632.67;106845;1258;124554;-84
2023/12/06 03:27:42;;;;;;;;;;;;;;;-5.21;79.58;101631.13;107020;1258;61254;-78
2023/12/06 03:30:09;;;;;;;;;;;;;;;-5.17;79.75;101636.95;106686;1256;125998;-78
2023/12/06 03:32:36;;;;;;;;;;;;;;;-5.14;79.76;101630.77;106174;1256;65815;-78
2023/12/06 03:35:03;;;;;;;;;;;;;;;-5.12;79.80;101628.39;106059;1258;124971;-85
2023/12/06 03:37:30;;;;;;;;;;;;;;;-5.08;79.75;101630.89;108025;1258;59307;-85
2023/12/06 03:39:57;;;;;;;;;;;;;;;-5.04;79.84;101632.25;107050;1256;61175;-85
2023/12/06 03:42:23;;;;;;;;;;;;;;;-5.00;79.84;101634.11;106527;1255;124979;-80
2023/12/06 03:44:50;;;;;;;;;;;;;;;-4.97;79.86;101639.64;106906;1256;66273;-87
2023/12/06 03:47:17;;;;;;;;;;;;;;;-4.94;79.80;101640.43;106793;1256;124730;-85
2023/12/06 03:49:43;;;;;;;;;;;;;;;-4.95;79.78;101641.46;106916;1256;59616;-85
2023/12/06 03:52:10;;;;;;;;;;;;;;;-4.90;79.85;101646.37;106951;1257;61363;-84
2023/12/06 03:54:37;;;;;;;;;;;;;;;-4.85;79.83;101645.80;106874;1260;123462;-84
2023/12/06 03:57:04;;;;;;;;;;;;;;;-4.82;79.79;101642.47;106931;1256;66515;-84
2023/12/06 03:59:30;;;;;;;;;;;;;;;-4.83;79.72;101640.52;106888;1256;124545;-84
2023/12/06 04:01:57;;;;;;;;;;;;;;;-4.84;79.83;101641.30;107035;1256;61323;-84
2023/12/06 04:04:24;;;;;;;;;;;;;;;-4.82;79.72;101647.64;106830;1255;61183;-84
2023/12/06 04:06:51;;;;;;;;;;;;;;;-4.83;79.81;101644.48;106792;1256;124336;-79
2023/12/06 04:09:18;;;;;;;;;;;;;;;-4.82;79.74;101643.53;106767;1256;65666;-78
2023/12/06 04:11:45;;;;;;;;;;;;;;;-4.81;79.85;101648.58;106738;1256;124312;-77
2023/12/06 04:14:12;;;;;;;;;;;;;;;-4.80;79.89;101647.05;106841;1254;59790;-77
2023/12/06 04:16:39;;;;;;;;;;;;;;;-4.77;79.81;101643.35;107034;1260;61378;-84
2023/12/06 04:19:06;;;;;;;;;;;;;;;-4.75;79.93;101637.64;106922;1258;124158;-84
2023/12/06 04:21:33;;;;;;;;;;;;;;;-4.72;79.91;101637.39;107585;1255;65396;-84
2023/12/06 04:23:59;;;;;;;;;;;;;;;-4.69;79.94;101638.58;107377;1255;124020;-84
2023/12/06 04:26:26;;;;;;;;;;;;;;;-4.69;79.90;101631.20;106927;1260;61179;-84
2023/12/06 04:28:53;;;;;;;;;;;;;;;-4.69;79.85;101628.25;106970;1258;61142;-85
2023/12/06 04:31:19;;;;;;;;;;;;;;;-4.69;79.85;101628.06;106875;1254;74092;-85
2023/12/06 04:33:46;;;;;;;;;;;;;;;-4.69;79.84;101633.75;106847;1258;65186;-85
2023/12/06 04:36:13;;;;;;;;;;;;;;;-4.71;79.94;101635.46;106843;1261;124412;-84
2023/12/06 04:38:39;;;;;;;;;;;;;;;-4.71;79.88;101636.77;106985;1258;61246;-85
2023/12/06 04:41:06;;;;;;;;;;;;;;;-4.70;80.02;101639.45;106879;1254;125034;-85
2023/12/06 04:43:33;;;;;;;;;;;;;;;-4.69;80.07;101641.27;106887;1261;74586;-78
2023/12/06 04:46:00;;;;;;;;;;;;;;;-4.69;80.03;101645.44;106764;1258;66246;-79
2023/12/06 04:48:27;;;;;;;;;;;;;;;-4.68;80.04;101645.29;106550;1254;125091;-79
2023/12/06 04:50:54;;;;;;;;;;;;;;;-4.66;80.35;101645.91;106781;1256;61276;-78
2023/12/06 04:53:20;;;;;;;;;;;;;;;-4.59;80.47;101647.36;106083;1256;125110;-77
2023/12/06 04:55:47;;;;;;;;;;;;;;;-4.56;80.48;101648.56;106865;1257;75211;-85
2023/12/06 04:58:14;;;;;;;;;;;;;;;-4.53;80.45;101644.77;106930;1260;66034;-85
2023/12/06 05:00:40;;;;;;;;;;;;;;;-4.48;80.47;101645.19;106823;1255;123483;-84
2023/12/06 05:03:07;;;;;;;;;;;;;;;-4.45;80.48;101641.88;106627;1257;61378;-85
2023/12/06 05:05:34;;;;;;;;;;;;;;;-4.42;80.53;101639.33;106789;1258;124753;-84
2023/12/06 05:08:01;;;;;;;;;;;;;;;-4.40;80.49;101638.14;106951;1258;74590;-84
2023/12/06 05:10:28;;;;;;;;;;;;;;;-4.37;80.46;101636.60;106954;1254;66267;-85
2023/12/06 05:12:56;;;;;;;;;;;;;;;-4.33;80.48;101634.37;106779;1259;124553;-78
2023/12/06 05:15:23;;;;;;;;;;;;;;;-4.27;80.67;101639.38;107064;1256;61291;-86
2023/12/06 05:17:50;;;;;;;;;;;;;;;-4.23;80.63;101639.46;106991;1258;125517;-85
2023/12/06 05:20:17;;;;;;;;;;;;;;;-4.19;80.60;101633.54;107163;1258;73607;-86
2023/12/06 05:22:43;;;;;;;;;;;;;;;-4.14;80.54;101635.23;106603;1255;68286;-82
2023/12/06 05:25:10;;;;;;;;;;;;;;;-4.12;80.49;101638.83;106542;1256;124599;-82
2023/12/06 05:27:37;;;;;;;;;;;;;;;-4.10;80.41;101638.55;106712;1260;61290;-82
2023/12/06 05:30:04;;;;;;;;;;;;;;;-4.10;80.47;101640.09;106775;1257;124586;-82
2023/12/06 05:32:30;;;;;;;;;;;;;;;-4.06;80.54;101641.27;106835;1260;72837;-83
2023/12/06 05:34:57;;;;;;;;;;;;;;;-4.01;80.70;101638.33;106716;1259;124721;-83
2023/12/06 05:37:24;;;;;;;;;;;;;;;-3.99;80.51;101641.98;106713;1257;72695;-82
2023/12/06 05:39:50;;;;;;;;;;;;;;;-3.97;80.49;101641.31;106684;1256;61195;-82
2023/12/06 05:42:17;;;;;;;;;;;;;;;-3.95;80.45;101642.02;106577;1260;123887;-81
2023/12/06 05:44:44;;;;;;;;;;;;;;;-3.95;80.43;101645.79;106701;1260;73162;-81
2023/12/06 05:47:10;;;;;;;;;;;;;;;-3.95;80.37;101645.61;106636;1260;124331;-81
2023/12/06 05:49:37;;;;;;;;;;;;;;;-3.95;80.43;101648.58;106752;1260;72547;-82
2023/12/06 05:52:04;;;;;;;;;;;;;;;-3.95;80.56;101645.15;106648;1255;59437;-83
2023/12/06 05:54:31;;;;;;;;;;;;;;;-3.93;80.48;101645.66;106722;1258;124572;-83
2023/12/06 05:56:58;;;;;;;;;;;;;;;-3.92;80.49;101642.10;106855;1258;74508;-84
2023/12/06 05:59:25;;;;;;;;;;;;;;;-3.95;80.35;101644.95;106663;1260;124209;-86
2023/12/06 06:01:52;;;;;;;;;;;;;;;-3.98;80.40;101638.84;106810;1262;72683;-86
2023/12/06 06:04:18;;;;;;;;;;;;;;;-3.98;80.47;101644.50;106835;1259;61139;-84
2023/12/06 06:06:45;;;;;;;;;;;;;;;-3.97;80.50;101643.20;106589;1259;124225;-82
2023/12/06 06:09:11;;;;;;;;;;;;;;;-3.99;80.34;101643.34;106786;1258;73880;-83
2023/12/06 06:11:38;;;;;;;;;;;;;;;-4.02;80.34;101648.19;106652;1259;124511;-85
2023/12/06 06:14:05;;;;;;;;;;;;;;;-4.02;80.49;101646.25;106802;1267;71461;-85
2023/12/06 06:16:31;;;;;;;;;;;;;;;-4.02;80.61;101645.92;106954;1254;61180;-81
2023/12/06 06:18:58;;;;;;;;;;;;;;;-3.99;80.73;101645.95;106057;1254;124866;-81
2023/12/06 06:21:25;;;;;;;;;;;;;;;-3.96;80.69;101645.18;106408;1260;75005;-81
2023/12/06 06:23:51;;;;;;;;;;;;;;;-3.93;80.59;101643.25;106725;1258;124508;-84
2023/12/06 06:26:18;;;;;;;;;;;;;;;-3.92;80.65;101645.10;106832;1258;72469;-87
2023/12/06 06:28:44;;;;;;;;;;;;;;;-3.88;80.70;101641.48;106862;1254;59400;-83
2023/12/06 06:31:11;;;;;;;;;;;;;;;-3.84;80.74;101634.18;106643;1260;124556;-85
2023/12/06 06:33:38;;;;;;;;;;;;;;;-3.81;80.68;101633.45;106840;1260;73605;-84
2023/12/06 06:36:06;;;;;;;;;;;;;;;-3.77;80.84;101632.62;107040;1256;123859;-84
2023/12/06 06:38:32;;;;;;;;;;;;;;;-3.72;80.77;101635.32;107143;1260;71733;-84
2023/12/06 06:40:59;;;;;;;;;;;;;;;-3.67;80.78;101635.04;106927;1256;124833;-84
2023/12/06 06:43:25;;;;;;;;;;;;;;;-3.64;80.62;101634.73;106938;1253;61271;-84
2023/12/06 06:45:52;;;;;;;;;;;;;;;-3.60;80.69;101635.21;106931;1258;76236;-83
2023/12/06 06:48:18;;;;;;;;;;;;;;;-3.55;80.69;101635.20;106822;1259;124800;-84
2023/12/06 06:50:46;;;;;;;;;;;;;;;-3.52;80.69;101633.64;106915;1257;72695;-83
2023/12/06 06:53:13;;;;;;;;;;;;;;;-3.50;80.52;101633.30;106602;1255;211246;-84
2023/12/06 06:55:39;;;;;;;;;;;;;;;-3.48;80.51;101634.16;107078;1255;61245;-84
2023/12/06 06:58:06;;;;;;;;;;;;;;;-3.45;80.49;101636.48;107011;1258;73377;-84
2023/12/06 07:00:33;;;;;;;;;;;;;;;-3.44;80.43;101640.20;106765;1260;124739;-84
2023/12/06 07:02:59;;;;;;;;;;;;;;;-3.41;80.44;101644.40;106744;1254;72818;-83
2023/12/06 07:05:26;;;;;;;;;;;;;;;-3.39;80.40;101641.34;106769;1258;125548;-83
2023/12/06 07:07:53;;;;;;;;;;;;;;;-3.38;80.29;101637.83;106745;1257;61251;-84
2023/12/06 07:10:20;;;;;;;;;;;;;;;-3.36;80.39;101635.12;106811;1258;74638;-83
2023/12/06 07:12:46;;;;;;;;;;;;;;;-3.33;80.37;101633.04;106977;1259;124728;-84
2023/12/06 07:15:14;;;;;;;;;;;;;;;-3.30;80.29;101633.13;106830;1254;70599;-83
2023/12/06 07:17:43;;;;;;;;;;;;;;;-3.29;80.18;101631.94;106790;1257;124574;-78
2023/12/06 07:20:11;;;;;;;;;;;;;;;-3.28;80.30;101630.91;109046;1256;59841;-79
2023/12/06 07:22:38;;;;;;;;;;;;;;;-3.25;80.33;101636.13;109097;1257;73931;-78
2023/12/06 07:25:05;;;;;;;;;;;;;;;-3.25;80.21;101637.67;108814;1254;124013;-77
2023/12/06 07:27:31;;;;;;;;;;;;;;;-3.25;80.14;101639.77;106128;1257;72772;-78
2023/12/06 07:29:58;;;;;;;;;;;;;;;-3.26;80.05;101634.29;106025;1254;123846;-78
2023/12/06 07:32:25;;;;;;;;;;;;;;;-3.27;80.13;101633.73;106011;1259;61246;-78
2023/12/06 07:34:51;;;;;;;;;;;;;;;-3.30;80.03;101630.05;106072;1257;73359;-78
2023/12/06 07:37:18;;;;;;;;;;;;;;;-3.34;80.13;101632.44;106758;1254;124241;-78
2023/12/06 07:39:45;;;;;;;;;;;;;;;-3.38;79.98;101629.49;106126;1260;72777;-78
2023/12/06 07:42:11;;;;;;;;;;;;;;;-3.42;79.96;101634.36;106170;1256;124788;-77
2023/12/06 07:44:38;;;;;;;;;;;;;;;-3.44;80.24;101634.50;106138;1257;61269;-78
2023/12/06 07:47:05;;;;;;;;;;;;;;;-3.40;80.49;101640.71;105959;1260;125417;-78
2023/12/06 07:49:32;;;;;;;;;;;;;;;-3.39;80.42;101638.11;106526;1254;66667;-78
2023/12/06 07:51:58;;;;;;;;;;;;;;;-3.39;80.52;101637.77;106016;1254;71328;-79
2023/12/06 07:54:25;;;;;;;;;;;;;;;-3.39;80.52;101642.06;106521;1260;124523;-78
2023/12/06 07:56:52;;;;;;;;;;;;;;;-3.38;80.45;101642.88;106224;1255;61240;-77
2023/12/06 07:59:18;;;;;;;;;;;;;;;-3.34;80.75;101640.80;106009;1260;124803;-77
2023/12/06 08:01:45;;;;;;;;;;;;;;;-3.29;80.70;101642.25;105938;1257;65412;-78
2023/12/06 08:04:13;;;;;;;;;;;;;;;-3.25;80.80;101644.68;105935;1260;71156;-78
2023/12/06 08:06:40;;;;;;;;;;;;;;;-3.20;80.76;101646.95;106462;1260;124702;-83
2023/12/06 08:09:13;;;;;;;;;;;;;;;-3.14;80.80;101646.14;106502;1257;61284;-83
2023/12/06 08:11:41;;;;;;;;;;;;;;;-3.07;80.93;101649.88;106575;1257;125534;-84
2023/12/06 08:14:08;;;;;;;;;;;;;;;-2.99;80.88;101652.55;106893;1254;65074;-84
2023/12/06 08:16:35;;;;;;;;;;;;;;;-2.94;80.78;101649.02;106799;1265;72599;-84
2023/12/06 08:19:01;;;;;;;;;;;;;;;-2.88;80.72;101653.15;106622;1257;124628;-84
2023/12/06 08:21:28;;;;;;;;;;;;;;;-2.81;80.91;101657.30;106609;1255;61251;-83
2023/12/06 08:23:54;;;;;;;;;;;;;;;-2.75;80.80;101654.49;106347;1254;124444;-84
2023/12/06 08:26:21;;;;;;;;;;;;;;;-2.71;80.72;101652.95;106670;1254;66355;-85
2023/12/06 08:28:48;;;;;;;;;;;;;;;-2.68;80.67;101653.42;106589;1254;72712;-85
2023/12/06 08:31:14;;;;;;;;;;;;;;;-2.65;80.54;101654.46;106658;1254;123815;-85
2023/12/06 08:33:41;;;;;;;;;;;;;;;-2.62;80.58;101654.35;106485;1254;61347;-85
2023/12/06 08:36:08;;;;;;;;;;;;;;;-2.60;80.54;101652.52;106622;1258;123968;-84
2023/12/06 08:38:34;;;;;;;;;;;;;;;-2.59;80.45;101657.55;106664;1254;64750;-84
2023/12/06 08:41:02;;;;;;;;;;;;;;;-2.56;80.61;101658.23;106652;1258;124045;-83
2023/12/06 08:43:28;;;;;;;;;;;;;;;-2.52;80.47;101664.35;106712;1254;61287;-84
2023/12/06 08:45:55;;;;;;;;;;;;;;;-2.51;80.50;101667.17;106669;1257;61249;-83
2023/12/06 08:48:21;;;;;;;;;;;;;;;-2.52;80.46;101664.20;106671;1254;124335;-84
2023/12/06 08:50:48;;;;;;;;;;;;;;;-2.51;80.44;101666.39;106635;1256;66135;-84
2023/12/06 08:53:15;;;;;;;;;;;;;;;-2.51;80.44;101665.66;106822;1254;125204;-78
2023/12/06 08:55:41;;;;;;;;;;;;;;;-2.47;80.56;101667.59;106501;1259;61345;-84
2023/12/06 08:58:08;;;;;;;;;;;;;;;-2.42;80.55;101671.14;106698;1254;61274;-84
2023/12/06 09:00:35;;;;;;;;;;;;;;;-2.42;80.31;101670.41;106561;1258;124691;-84
2023/12/06 09:03:14;;;;;;;;;;;;;;;-2.43;80.40;101672.63;106852;1254;66127;-78
2023/12/06 09:05:41;;;;;;;;;;;;;;;-2.37;80.47;101674.70;106678;1255;125245;-79
2023/12/06 09:08:07;;;;;;;;;;;;;;;-2.29;80.48;101669.58;106698;1253;61287;-85
2023/12/06 09:10:34;;;;;;;;;;;;;;;-2.23;80.56;101666.38;106564;1253;61101;-85
2023/12/06 09:13:00;;;;;;;;;;;;;;;-2.17;80.53;101665.16;106386;1254;124950;-85
2023/12/06 09:15:27;;;;;;;;;;;;;;;-2.10;80.46;101666.45;106678;1255;66158;-85
2023/12/06 09:17:54;;;;;;;;;;;;;;;-2.03;80.35;101665.26;106424;1260;124924;-77
2023/12/06 09:20:20;;;;;;;;;;;;;;;-1.97;80.32;101664.88;106129;1258;61233;-84
2023/12/06 09:22:47;;;;;;;;;;;;;;;-1.93;80.28;101662.67;106674;1254;61212;-84
2023/12/06 09:25:14;;;;;;;;;;;;;;;-1.89;80.16;101660.48;106633;1255;124498;-83
2023/12/06 09:27:40;;;;;;;;;;;;;;;-1.83;80.17;101662.58;106221;1256;66238;-84
2023/12/06 09:30:08;;;;;;;;;;;;;;;-1.78;80.09;101660.23;106052;1257;124630;-85
2023/12/06 09:32:35;;;;;;;;;;;;;;;-1.77;80.03;101663.42;106174;1257;61304;-85
2023/12/06 09:35:08;;;;;;;;;;;;;;;-1.75;79.95;101662.38;106649;1254;61191;-79
2023/12/06 09:37:35;;;;;;;;;;;;;;;-1.73;79.94;101662.90;107992;1257;74718;-79
2023/12/06 09:40:02;;;;;;;;;;;;;;;-1.73;79.91;101658.02;106093;1260;65279;-84
2023/12/06 09:42:29;;;;;;;;;;;;;;;-1.72;79.89;101658.16;106542;1254;124797;-84
2023/12/06 09:44:56;;;;;;;;;;;;;;;-1.70;79.79;101655.53;106473;1258;61190;-84
2023/12/06 09:47:23;;;;;;;;;;;;;;;-1.70;79.68;101651.15;106555;1260;123993;-84
2023/12/06 09:49:54;;;;;;;;;;;;;;;-1.67;79.78;101651.48;106172;1254;73341;-78
2023/12/06 09:52:23;;;;;;;;;;;;;;;-1.66;79.89;101646.98;107907;1255;64803;-78
2023/12/06 09:54:50;;;;;;;;;;;;;;;-1.63;79.74;101645.32;105785;1254;125080;-78
2023/12/06 09:57:17;;;;;;;;;;;;;;;-1.59;79.87;101643.14;106084;1260;61237;-78
2023/12/06 09:59:44;;;;;;;;;;;;;;;-1.54;79.81;101644.26;105956;1256;125491;-78
2023/12/06 10:02:10;;;;;;;;;;;;;;;-1.49;79.75;101639.50;106054;1257;73070;-78
2023/12/06 10:04:37;;;;;;;;;;;;;;;-1.44;79.59;101635.62;106090;1254;65201;-78
2023/12/06 10:07:04;;;;;;;;;;;;;;;-1.38;79.70;101630.48;106313;1254;124776;-78
2023/12/06 10:09:31;;;;;;;;;;;;;;;-1.31;79.86;101630.03;106226;1257;61230;-78
2023/12/06 10:12:10;;;;;;;;;;;;;;;-1.27;79.73;101626.98;105961;1255;125011;-78
2023/12/06 10:14:37;;;;;;;;;;;;;;;-1.21;79.56;101625.42;105957;1260;75573;-78
2023/12/06 10:17:04;;;;;;;;;;;;;;;-1.15;79.69;101625.71;106483;1258;66636;-78
2023/12/06 10:19:31;;;;;;;;;;;;;;;-1.10;79.57;101624.13;105816;1256;124381;-78
2023/12/06 10:21:58;;;;;;;;;;;;;;;-1.04;79.48;101625.46;106090;1257;61213;-77
2023/12/06 10:24:25;;;;;;;;;;;;;;;-0.92;79.71;101630.45;106062;1254;125106;-80
2023/12/06 10:27:11;;;;;;;;;;;;;;;-0.85;79.55;101628.68;106738;1254;74757;-78
2023/12/06 10:29:38;;;;;;;;;;;;;;;-0.77;79.34;101631.05;105997;1254;124217;-78
2023/12/06 10:32:05;;;;;;;;;;;;;;;-0.73;79.23;101630.11;105957;1254;72502;-84
2023/12/06 10:38:06;;;;;;;;;;;;;;;-0.70;78.81;101624.59;106463;1254;61165;-78
2023/12/06 10:40:33;;;;;;;;;;;;;;;-0.73;78.79;101624.50;105879;1254;74559;-77
2023/12/06 10:43:07;;;;;;;;;;;;;;;-0.76;78.52;101620.39;105814;1254;124091;-78
2023/12/06 10:45:34;;;;;;;;;;;;;;;-0.79;78.78;101620.88;106103;1255;72541;-78
2023/12/06 10:48:01;;;;;;;;;;;;;;;-0.77;78.67;101620.18;105907;1257;124110;-78
2023/12/06 10:50:30;;;;;;;;;;;;;;;-0.73;78.79;101618.45;106194;1258;61193;-79
2023/12/06 10:52:58;;;;;;;;;;;;;;;-0.73;78.52;101614.67;106521;1254;73630;-79
2023/12/06 10:55:26;;;;;;;;;;;;;;;-0.76;78.50;101612.54;106424;1254;124642;-78
2023/12/06 10:57:53;;;;;;;;;;;;;;;-0.76;78.55;101615.96;105946;1260;71350;-78
2023/12/06 11:00:19;;;;;;;;;;;;;;;-0.77;78.40;101613.92;106098;1255;123844;-77
2023/12/06 11:02:46;;;;;;;;;;;;;;;-0.80;78.46;101614.79;106044;1257;61045;-77
2023/12/06 11:05:13;;;;;;;;;;;;;;;-0.81;78.33;101613.15;105870;1256;74764;-78
2023/12/06 11:07:46;;;;;;;;;;;;;;;-0.84;78.50;101608.89;105800;1254;124609;-79
2023/12/06 11:10:31;;;;;;;;;;;;;;;-0.87;78.23;101602.42;106712;1254;72617;-79
2023/12/06 11:13:07;;;;;;;;;;;;;;;-0.88;78.46;101599.95;106071;1254;125166;-78
2023/12/06 11:15:46;;;;;;;;;;;;;;;-0.87;78.25;101603.48;106509;1254;61240;-78
2023/12/06 11:18:13;;;;;;;;;;;;;;;-0.87;78.43;101599.66;105826;1254;124583;-78
2023/12/06 11:20:40;;;;;;;;;;;;;;;-0.87;78.24;101597.83;106093;1258;67585;-78
2023/12/06 11:23:07;;;;;;;;;;;;;;;-0.86;78.03;101598.60;105975;1257;71851;-78
2023/12/06 11:25:39;;;;;;;;;;;;;;;-0.87;78.26;101597.45;105953;1261;124938;-77
2023/12/06 11:28:09;;;;;;;;;;;;;;;-0.83;78.32;101594.02;106240;1254;61216;-77
2023/12/06 11:30:44;;;;;;;;;;;;;;;-0.80;78.24;101598.07;106298;1256;124799;-78
2023/12/06 11:33:10;;;;;;;;;;;;;;;-0.81;78.17;101598.34;106037;1256;64983;-84
2023/12/06 11:35:44;;;;;;;;;;;;;;;-0.86;77.92;101599.11;106146;1254;124890;-85
2023/12/06 11:38:11;;;;;;;;;;;;;;;-0.87;77.96;101595.73;106686;1253;61373;-85
2023/12/06 11:40:56;;;;;;;;;;;;;;;-0.87;78.02;101596.79;106514;1253;61251;-78
2023/12/06 11:43:32;;;;;;;;;;;;;;;-0.86;78.03;101596.02;108198;1254;124415;-85
2023/12/06 11:46:06;;;;;;;;;;;;;;;-0.83;78.01;101587.62;106678;1258;67532;-84
2023/12/06 11:48:33;;;;;;;;;;;;;;;-0.82;77.78;101589.24;106468;1256;122894;-84
2023/12/06 11:51:03;;;;;;;;;;;;;;;-0.80;78.05;101587.52;106619;1254;61417;-84
2023/12/06 11:53:30;;;;;;;;;;;;;;;-0.80;78.11;101585.99;106406;1254;124239;-78
2023/12/06 11:55:56;;;;;;;;;;;;;;;-0.79;77.99;101593.45;106010;1260;76075;-77
2023/12/06 11:58:30;;;;;;;;;;;;;;;-0.80;77.90;101589.09;105938;1261;66253;-79
2023/12/06 12:00:57;;;;;;;;;;;;;;;-0.83;77.90;101584.35;108865;1254;124048;-78
2023/12/06 12:03:24;;;;;;;;;;;;;;;-0.87;77.84;101579.50;107488;1254;61325;-79
2023/12/06 12:05:52;;;;;;;;;;;;;;;-0.96;77.50;101572.91;105712;1263;124670;-78
2023/12/06 12:08:19;;;;;;;;;;;;;;;-1.06;77.56;101576.77;106724;1255;73369;-78
2023/12/06 12:10:45;;;;;;;;;;;;;;;-1.09;77.73;101579.38;105887;1254;65049;-78
2023/12/06 12:13:19;;;;;;;;;;;;;;;-1.10;77.84;101588.27;105878;1256;124221;-80
2023/12/06 12:15:49;;;;;;;;;;;;;;;-1.10;77.79;101592.39;106849;1258;61222;-78
2023/12/06 12:18:16;;;;;;;;;;;;;;;-1.13;77.98;101593.90;105898;1256;124399;-79
2023/12/06 12:20:43;;;;;;;;;;;;;;;-1.13;77.94;101590.95;106615;1256;73303;-79
2023/12/06 12:23:10;;;;;;;;;;;;;;;-1.11;78.16;101590.45;105856;1256;65100;-79
2023/12/06 12:25:43;;;;;;;;;;;;;;;-1.10;77.86;101594.48;105881;1254;124972;-79
2023/12/06 12:28:10;;;;;;;;;;;;;;;-1.10;77.86;101595.86;106698;1255;59425;-79